This is the latest recevied weather packets stored in our database for station/object WB8SKP-WX. If no packets are shown the sender has not sent any weather packets the latest 10 day(s).
| Time | Temp. | Humidity | Pressure | Rain* | Wind** | Luminosity | Snow |
|---|---|---|---|---|---|---|---|
| 1778161949 | 12.22° C | 71% | 998.2 hPa | 0 mm | - | - | - |
| 1778160718 | 11.67° C | 73% | 998 hPa | 0 mm | - | - | - |
| 1778159518 | 11.11° C | 76% | 998 hPa | 0 mm | - | - | - |
| 1778158318 | 10.56° C | 79% | 998 hPa | 0 mm | - | - | - |
| 1778157118 | 10.56° C | 80% | 997.7 hPa | 0 mm | - | - | - |
| 1778155888 | 10° C | 84% | 997.4 hPa | 0 mm | - | - | - |
| 1778154688 | 9.44° C | 87% | 997.5 hPa | 0 mm | - | - | - |
| 1778153488 | 8.89° C | 91% | 997.5 hPa | 0 mm | - | - | - |
| 1778152258 | 8.89° C | 95% | 997.4 hPa | 0 mm | - | - | - |
| 1778151058 | 8.89° C | 95% | 997.3 hPa | 0 mm | - | - | - |
| 1778149889 | 8.89° C | 96% | 997.2 hPa | 0 mm | - | - | - |
| 1778149858 | 8.89° C | 96% | 997.2 hPa | 0 mm | - | - | - |
| 1778148628 | 8.89° C | 98% | 997.3 hPa | 0 mm | - | - | - |
| 1778147428 | 9.44° C | 97% | 997.2 hPa | 0 mm | - | - | - |
| 1778146272 | 9.44° C | 96% | 996.9 hPa | 0 mm | - | - | - |
| 1778146228 | 9.44° C | 96% | 996.9 hPa | 0 mm | - | - | - |
| 1778145028 | 8.89° C | 99% | 996.5 hPa | 0 mm | - | - | - |
| 1778143798 | 8.33° C | 99% | 996.5 hPa | 0 mm | - | - | - |
| 1778142638 | 8.89° C | 99% | 996.5 hPa | 0 mm | - | - | - |
| 1778142598 | 8.89° C | 99% | 996.5 hPa | 0 mm | - | - | - |
| 1778141368 | 8.89° C | 99% | 996.5 hPa | 0 mm | - | - | - |
| 1778140168 | 9.44° C | 99% | 996.6 hPa | 0 mm | - | - | - |
| 1778138968 | 9.44° C | 99% | 996.4 hPa | 0 mm | - | - | - |
| 1778137738 | 8.89° C | 99% | 996.6 hPa | 0 mm | - | - | - |
| 1778136538 | 9.44° C | 99% | 996.7 hPa | 0 mm | - | - | - |
* Rain latest hour (hover to see other rain measurements)
** Current wind speed in m/s (hover to see current wind gust speed)